Time;durP1;ratioP1;P1;durP2;ratioP2;P2;SDS_P1;SDS_P2;PMS_P1;PMS_P2;Temp;Humidity;BMP_temperature;BMP_pressure;BME280_temperature;BME280_humidity;BME280_pressure;Samples;Min_cycle;Max_cycle;Signal;HPM_P1;HPM_P2
2024/01/08 00:01:36;;;;;;;11.43;4.47;;;-0.70;99.90;;;;;;6067906;23;20718;-72
2024/01/08 00:04:06;;;;;;;9.45;4.53;;;-0.70;99.90;;;;;;6067395;23;20037;-72
2024/01/08 00:06:31;;;;;;;8.93;4.25;;;-0.70;99.90;;;;;;6067715;23;20033;-72
2024/01/08 00:08:57;;;;;;;11.18;4.85;;;-0.70;99.90;;;;;;6068401;23;20109;-72
2024/01/08 00:11:23;;;;;;;8.15;4.47;;;-0.70;99.90;;;;;;6066667;23;20053;-72
2024/01/08 00:13:49;;;;;;;8.98;4.63;;;-0.70;99.90;;;;;;6067097;23;20026;-72
2024/01/08 00:16:14;;;;;;;8.85;4.68;;;-0.70;99.90;;;;;;6066716;23;20049;-72
2024/01/08 00:18:40;;;;;;;7.65;4.07;;;-0.70;99.90;;;;;;6067775;23;20507;-72
2024/01/08 00:21:06;;;;;;;11.65;4.85;;;-0.70;99.90;;;;;;6043055;23;20022;-72
2024/01/08 00:23:35;;;;;;;7.80;4.57;;;-0.70;99.90;;;;;;6043278;23;20105;-72
2024/01/08 00:26:01;;;;;;;9.57;4.88;;;-0.70;99.90;;;;;;6066874;23;20026;-72
2024/01/08 00:28:27;;;;;;;8.60;4.32;;;-0.70;99.90;;;;;;6067524;23;20346;-73
2024/01/08 00:30:53;;;;;;;7.13;4.60;;;-0.70;99.90;;;;;;6065898;23;20030;-72
2024/01/08 00:33:19;;;;;;;9.70;5.35;;;-0.70;99.90;;;;;;6067627;23;20486;-71
2024/01/08 00:35:45;;;;;;;7.35;3.80;;;-0.70;99.90;;;;;;6066802;23;20046;-72
2024/01/08 00:38:10;;;;;;;8.52;5.22;;;-0.70;99.90;;;;;;6063641;23;20018;-72
2024/01/08 00:40:36;;;;;;;6.60;4.28;;;-0.70;99.90;;;;;;6093496;23;20030;-71
2024/01/08 00:43:02;;;;;;;8.00;4.63;;;-0.60;99.90;;;;;;6066331;23;20481;-71
2024/01/08 00:45:28;;;;;;;7.28;4.45;;;-0.70;99.90;;;;;;6043241;23;20056;-71
2024/01/08 00:47:53;;;;;;;8.70;4.30;;;-0.70;99.90;;;;;;6067123;23;20102;-71
2024/01/08 00:50:19;;;;;;;7.70;4.70;;;-0.70;99.90;;;;;;6066792;23;20023;-71
2024/01/08 00:52:45;;;;;;;7.95;4.30;;;-0.70;99.90;;;;;;6066746;23;20076;-71
2024/01/08 00:55:11;;;;;;;8.57;4.53;;;-0.70;99.90;;;;;;6067330;23;20015;-71
2024/01/08 00:57:38;;;;;;;11.68;6.00;;;-0.60;99.90;;;;;;6065855;23;20469;-71
2024/01/08 01:00:05;;;;;;;7.95;4.72;;;-0.60;99.90;;;;;;6067086;23;20328;-71
2024/01/08 01:02:31;;;;;;;9.68;5.53;;;-0.60;99.90;;;;;;6066310;23;20086;-71
2024/01/08 01:04:57;;;;;;;13.70;4.90;;;-0.60;99.90;;;;;;6042832;23;20398;-72
2024/01/08 01:07:23;;;;;;;11.25;4.70;;;-0.60;99.90;;;;;;6042857;23;20050;-71
2024/01/08 01:09:49;;;;;;;10.38;4.72;;;-0.60;99.90;;;;;;6092532;23;20025;-71
2024/01/08 01:12:14;;;;;;;8.85;5.20;;;-0.60;99.90;;;;;;6091673;23;20523;-71
2024/01/08 01:14:40;;;;;;;9.13;4.15;;;-0.60;99.90;;;;;;6066745;23;20023;-71
2024/01/08 01:17:06;;;;;;;8.20;4.35;;;-0.60;99.90;;;;;;6067127;23;20026;-71
2024/01/08 01:19:32;;;;;;;6.68;4.07;;;-0.60;99.90;;;;;;6066871;23;20440;-72
2024/01/08 01:21:58;;;;;;;7.55;4.32;;;-0.60;99.90;;;;;;6066039;23;20029;-71
2024/01/08 01:24:24;;;;;;;10.55;5.03;;;-0.60;99.90;;;;;;6067005;23;20026;-71
2024/01/08 01:26:49;;;;;;;7.00;4.25;;;-0.60;99.90;;;;;;6065261;23;20045;-71
2024/01/08 01:29:15;;;;;;;8.05;4.32;;;-0.60;99.90;;;;;;6066765;23;20168;-71
2024/01/08 01:31:41;;;;;;;8.85;4.35;;;-0.60;99.90;;;;;;6066892;23;20073;-71
2024/01/08 01:34:09;;;;;;;10.02;4.30;;;-0.60;99.90;;;;;;6066913;23;20358;-71
2024/01/08 01:36:35;;;;;;;7.43;4.10;;;-0.60;99.90;;;;;;6091864;23;20078;-71
2024/01/08 01:39:10;;;;;;;12.25;5.13;;;-0.60;99.90;;;;;;6038522;23;20038;-71
2024/01/08 01:41:36;;;;;;;8.65;5.00;;;-0.70;99.90;;;;;;6065777;23;20067;-71
2024/01/08 01:44:02;;;;;;;12.65;4.90;;;-0.70;99.90;;;;;;6066602;23;20328;-71
2024/01/08 01:46:43;;;;;;;6.80;4.32;;;-0.80;99.90;;;;;;6092557;23;20382;-71
2024/01/08 01:49:12;;;;;;;9.27;4.38;;;-0.80;99.90;;;;;;6065912;23;20026;-71
2024/01/08 01:51:43;;;;;;;8.07;4.10;;;-0.90;99.90;;;;;;6042387;23;20023;-71
2024/01/08 01:54:11;;;;;;;10.18;4.57;;;-0.90;99.90;;;;;;6066105;23;20105;-71
2024/01/08 01:56:37;;;;;;;8.82;4.57;;;-1.00;99.90;;;;;;6090286;23;20022;-71
2024/01/08 01:59:04;;;;;;;11.18;4.68;;;-1.00;99.90;;;;;;6066961;23;20033;-71
2024/01/08 02:01:30;;;;;;;9.77;4.55;;;-1.10;99.90;;;;;;6066871;23;20355;-71
2024/01/08 02:03:56;;;;;;;10.55;4.53;;;-1.10;99.90;;;;;;6066702;23;20022;-71
2024/01/08 02:06:24;;;;;;;9.38;4.97;;;-1.20;99.90;;;;;;6066856;23;20571;-71
2024/01/08 02:08:54;;;;;;;8.18;4.28;;;-1.20;99.90;;;;;;6042395;23;20030;-71
2024/01/08 02:11:20;;;;;;;7.97;4.55;;;-1.20;99.90;;;;;;6065651;23;20022;-71
2024/01/08 02:13:46;;;;;;;6.90;3.83;;;-1.20;99.90;;;;;;6092439;23;20030;-71
2024/01/08 02:16:12;;;;;;;8.35;4.53;;;-1.20;99.90;;;;;;6092734;23;20078;-71
2024/01/08 02:18:38;;;;;;;7.45;4.55;;;-1.30;99.90;;;;;;6066856;23;20040;-71
2024/01/08 02:21:04;;;;;;;9.07;4.75;;;-1.30;99.90;;;;;;6066937;23;20040;-71
2024/01/08 02:23:29;;;;;;;9.65;4.00;;;-1.30;99.90;;;;;;6091425;23;20018;-72
2024/01/08 02:25:55;;;;;;;8.50;3.92;;;-1.30;99.90;;;;;;6066306;23;20026;-72
2024/01/08 02:28:21;;;;;;;8.80;4.25;;;-1.30;99.90;;;;;;6091713;23;20033;-72
2024/01/08 02:30:47;;;;;;;8.20;4.05;;;-1.30;99.90;;;;;;6042886;23;20014;-72
2024/01/08 02:33:12;;;;;;;9.10;4.18;;;-1.30;99.90;;;;;;6066877;23;20105;-72
2024/01/08 02:35:38;;;;;;;7.72;4.25;;;-1.40;99.90;;;;;;6067578;23;20029;-72
2024/01/08 02:38:04;;;;;;;11.70;5.05;;;-1.40;99.90;;;;;;6087707;23;20036;-72
2024/01/08 02:40:29;;;;;;;10.80;5.30;;;-1.40;99.90;;;;;;6067895;23;20018;-73
2024/01/08 02:42:55;;;;;;;12.05;5.40;;;-1.40;99.90;;;;;;6093949;23;20134;-72
2024/01/08 02:45:20;;;;;;;8.57;4.85;;;-1.40;99.90;;;;;;6068017;23;20116;-72
2024/01/08 02:47:46;;;;;;;10.98;4.75;;;-1.30;99.90;;;;;;6068185;23;20026;-72
2024/01/08 02:50:12;;;;;;;7.68;4.57;;;-1.30;99.90;;;;;;6067963;23;20049;-72
2024/01/08 02:52:38;;;;;;;9.07;5.20;;;-1.30;99.90;;;;;;6094948;23;20470;-72
2024/01/08 02:55:04;;;;;;;8.27;4.55;;;-1.30;99.90;;;;;;6068155;23;20023;-72
2024/01/08 02:57:30;;;;;;;9.10;4.28;;;-1.20;99.90;;;;;;6067247;23;20027;-72
2024/01/08 02:59:56;;;;;;;9.45;4.57;;;-1.20;99.90;;;;;;6068317;23;20090;-72
2024/01/08 03:02:26;;;;;;;9.30;5.13;;;-1.20;99.90;;;;;;6067686;23;20459;-72
2024/01/08 03:04:52;;;;;;;9.80;5.50;;;-1.20;99.90;;;;;;6068665;23;20023;-72
2024/01/08 03:07:20;;;;;;;9.70;5.30;;;-1.10;99.90;;;;;;6069160;23;20037;-72
2024/01/08 03:09:46;;;;;;;8.90;4.88;;;-1.10;99.90;;;;;;6068671;23;20081;-72
2024/01/08 03:12:13;;;;;;;6.80;4.53;;;-1.10;99.90;;;;;;6067034;23;20109;-72
2024/01/08 03:14:39;;;;;;;9.38;4.70;;;-1.10;99.90;;;;;;6044960;23;20026;-72
2024/01/08 03:17:05;;;;;;;9.73;5.13;;;-1.10;99.90;;;;;;6044565;23;20073;-72
2024/01/08 03:19:31;;;;;;;12.45;5.22;;;-1.10;99.90;;;;;;6067715;23;20026;-72
2024/01/08 03:22:00;;;;;;;11.45;5.20;;;-1.00;99.90;;;;;;6068423;23;20530;-72
2024/01/08 03:24:25;;;;;;;8.43;4.70;;;-1.00;99.90;;;;;;6068480;23;20022;-72
2024/01/08 03:26:51;;;;;;;12.45;5.80;;;-1.00;99.90;;;;;;6067671;23;20022;-72
2024/01/08 03:29:17;;;;;;;7.63;4.63;;;-1.00;99.90;;;;;;6068574;23;20026;-72
2024/01/08 03:31:43;;;;;;;11.82;5.38;;;-1.00;99.90;;;;;;6093877;23;20102;-72
2024/01/08 03:34:09;;;;;;;8.73;4.32;;;-1.00;99.90;;;;;;6067971;23;20072;-72
2024/01/08 03:36:35;;;;;;;8.00;5.28;;;-0.90;99.90;;;;;;6094358;23;20459;-72
2024/01/08 03:39:01;;;;;;;9.63;5.30;;;-1.00;99.90;;;;;;6090734;23;20014;-72
2024/01/08 03:41:26;;;;;;;11.27;5.68;;;-0.90;99.90;;;;;;6066947;23;20034;-72
2024/01/08 03:43:52;;;;;;;9.32;4.63;;;-0.90;99.90;;;;;;6094150;23;20030;-72
2024/01/08 03:46:18;;;;;;;9.07;5.15;;;-0.90;99.90;;;;;;6093994;23;20011;-72
2024/01/08 03:48:44;;;;;;;8.65;5.47;;;-0.90;99.90;;;;;;6067737;23;20018;-72
2024/01/08 03:51:09;;;;;;;8.40;4.85;;;-0.90;99.90;;;;;;6066926;23;20030;-72
2024/01/08 03:53:35;;;;;;;9.20;4.55;;;-0.80;99.90;;;;;;6067038;23;20442;-72
2024/01/08 03:56:00;;;;;;;10.00;5.28;;;-0.90;99.90;;;;;;6067653;23;20014;-72
2024/01/08 03:58:27;;;;;;;9.23;5.68;;;-0.90;99.90;;;;;;6068109;23;20489;-72
2024/01/08 04:00:53;;;;;;;9.73;5.28;;;-0.80;99.90;;;;;;6044348;23;20053;-72
2024/01/08 04:03:19;;;;;;;11.45;5.15;;;-0.80;99.90;;;;;;6068118;23;20018;-72
2024/01/08 04:05:45;;;;;;;8.10;5.18;;;-0.80;99.90;;;;;;6068451;23;20033;-72
2024/01/08 04:08:11;;;;;;;8.38;5.22;;;-0.80;99.90;;;;;;6043787;23;20022;-72
2024/01/08 04:10:37;;;;;;;8.80;5.00;;;-0.80;99.90;;;;;;6093693;23;20027;-72
2024/01/08 04:13:03;;;;;;;8.85;4.78;;;-0.80;99.90;;;;;;6092924;23;20403;-72
2024/01/08 04:15:29;;;;;;;9.35;4.63;;;-0.80;99.90;;;;;;6067610;23;20026;-72
2024/01/08 04:17:55;;;;;;;9.38;4.88;;;-0.80;99.90;;;;;;6043913;23;20447;-72
2024/01/08 04:20:21;;;;;;;8.98;5.10;;;-0.70;99.90;;;;;;6067999;23;20018;-72
2024/01/08 04:22:48;;;;;;;8.65;5.28;;;-0.80;99.90;;;;;;6043706;23;20097;-72
2024/01/08 04:25:14;;;;;;;10.80;4.65;;;-0.70;99.90;;;;;;6068194;23;20026;-72
2024/01/08 04:27:40;;;;;;;10.48;5.95;;;-0.70;99.90;;;;;;6092386;23;20089;-72
2024/01/08 04:30:06;;;;;;;11.95;6.18;;;-0.70;99.90;;;;;;6067384;23;20502;-72
2024/01/08 04:32:32;;;;;;;10.02;5.68;;;-0.70;99.90;;;;;;6068358;23;20482;-72
2024/01/08 04:34:57;;;;;;;9.63;5.35;;;-0.70;99.90;;;;;;6093896;23;20049;-72
2024/01/08 04:37:23;;;;;;;11.10;5.53;;;-0.60;99.90;;;;;;6041939;23;20435;-72
2024/01/08 04:39:49;;;;;;;9.55;5.57;;;-0.60;99.90;;;;;;6065712;23;20146;-72
2024/01/08 04:42:14;;;;;;;9.27;5.13;;;-0.60;99.90;;;;;;6067056;23;20074;-72
2024/01/08 04:44:40;;;;;;;9.85;5.22;;;-0.60;99.90;;;;;;6067366;23;20022;-72
2024/01/08 04:47:07;;;;;;;7.88;4.63;;;-0.60;99.90;;;;;;6067236;23;20061;-72
2024/01/08 04:49:33;;;;;;;10.18;5.28;;;-0.60;99.90;;;;;;6067231;23;20050;-72
2024/01/08 04:51:58;;;;;;;10.35;5.55;;;-0.60;99.90;;;;;;6067789;23;20018;-73
2024/01/08 04:54:24;;;;;;;13.63;6.55;;;-0.60;99.90;;;;;;6067596;23;20030;-72
2024/01/08 04:56:50;;;;;;;9.60;5.25;;;-0.60;99.90;;;;;;6066920;23;20014;-72
2024/01/08 04:59:15;;;;;;;9.50;5.15;;;-0.60;99.90;;;;;;6066743;23;20027;-73
2024/01/08 05:01:41;;;;;;;11.98;6.07;;;-0.60;99.90;;;;;;6068037;23;20026;-72
2024/01/08 05:04:07;;;;;;;11.13;6.00;;;-0.60;99.90;;;;;;6067534;23;20033;-72
2024/01/08 05:06:32;;;;;;;13.32;6.10;;;-0.60;99.90;;;;;;6067943;23;20094;-72
2024/01/08 05:08:58;;;;;;;9.60;5.28;;;-0.60;99.90;;;;;;6092185;23;20034;-71
2024/01/08 05:11:24;;;;;;;10.35;5.82;;;-0.60;99.90;;;;;;6092156;23;20010;-72
2024/01/08 05:13:49;;;;;;;9.63;4.90;;;-0.50;99.90;;;;;;6067494;23;20025;-71
2024/01/08 05:16:15;;;;;;;11.13;5.72;;;-0.60;99.90;;;;;;6044346;23;20011;-72
2024/01/08 05:18:41;;;;;;;11.88;5.90;;;-0.50;99.90;;;;;;6043145;23;20421;-72
2024/01/08 05:21:07;;;;;;;10.70;5.22;;;-0.60;99.90;;;;;;6067278;23;20022;-71
2024/01/08 05:23:33;;;;;;;9.85;5.30;;;-0.50;99.90;;;;;;6067877;23;20022;-72
2024/01/08 05:26:00;;;;;;;11.10;5.90;;;-0.60;99.90;;;;;;6091970;23;20015;-72
2024/01/08 05:28:27;;;;;;;10.35;4.75;;;-0.60;99.90;;;;;;6067570;23;20011;-71
2024/01/08 05:30:53;;;;;;;10.13;4.45;;;-0.60;99.90;;;;;;6066959;23;20632;-71
2024/01/08 05:33:18;;;;;;;8.98;4.18;;;-0.60;99.90;;;;;;6067431;23;20053;-71
2024/01/08 05:35:44;;;;;;;9.88;4.55;;;-0.60;99.90;;;;;;6093585;23;20020;-72
2024/01/08 05:38:10;;;;;;;9.75;4.25;;;-0.50;99.90;;;;;;6089833;23;20018;-72
2024/01/08 05:40:36;;;;;;;8.27;3.75;;;-0.50;99.90;;;;;;6092484;23;20081;-72
2024/01/08 05:43:03;;;;;;;8.45;4.20;;;-0.60;99.90;;;;;;6066926;23;20040;-73
2024/01/08 05:45:32;;;;;;;8.50;3.58;;;-0.60;99.90;;;;;;6067465;23;20040;-72
2024/01/08 05:47:58;;;;;;;8.73;3.85;;;-0.60;99.90;;;;;;6066158;23;20093;-72
2024/01/08 05:50:30;;;;;;;9.77;3.72;;;-0.60;99.90;;;;;;6067172;23;20026;-72
2024/01/08 05:52:56;;;;;;;5.72;4.38;;;-0.60;99.90;;;;;;6092831;23;20230;-72
2024/01/08 05:55:23;;;;;;;8.45;4.10;;;-0.60;99.90;;;;;;6066817;23;20029;-72
2024/01/08 05:57:49;;;;;;;9.20;4.00;;;-0.60;99.90;;;;;;6066013;23;20370;-72
2024/01/08 06:00:16;;;;;;;7.13;3.78;;;-0.60;99.90;;;;;;6092750;23;20026;-72
2024/01/08 06:02:42;;;;;;;8.23;3.45;;;-0.60;99.90;;;;;;6067649;23;20022;-72
2024/01/08 06:05:08;;;;;;;6.50;3.53;;;-0.60;99.90;;;;;;6067207;23;20022;-71
2024/01/08 06:07:34;;;;;;;5.82;3.33;;;-0.70;99.90;;;;;;6066593;23;20066;-71
2024/01/08 06:10:00;;;;;;;6.35;3.45;;;-0.70;99.90;;;;;;6067053;23;20026;-72
2024/01/08 06:12:25;;;;;;;6.90;3.55;;;-0.80;99.90;;;;;;6042361;23;20021;-72
2024/01/08 06:14:51;;;;;;;8.18;3.67;;;-0.80;99.90;;;;;;6065875;23;20029;-71
2024/01/08 06:17:17;;;;;;;7.85;3.30;;;-0.90;99.90;;;;;;6066767;23;20014;-72
2024/01/08 06:19:43;;;;;;;5.60;3.55;;;-1.00;99.90;;;;;;6093846;23;20034;-71
2024/01/08 06:22:09;;;;;;;6.40;3.28;;;-1.00;99.90;;;;;;6066680;23;20033;-71
2024/01/08 06:24:35;;;;;;;7.75;3.58;;;-1.10;99.90;;;;;;6092979;23;20383;-71
2024/01/08 06:27:00;;;;;;;5.40;3.08;;;-1.10;99.90;;;;;;6091799;23;20018;-71
2024/01/08 06:29:26;;;;;;;11.70;3.78;;;-1.10;99.90;;;;;;6066782;23;20026;-71
2024/01/08 06:31:52;;;;;;;10.50;3.88;;;-1.20;99.90;;;;;;6093304;23;20014;-71
2024/01/08 06:34:17;;;;;;;9.77;3.83;;;-1.20;99.90;;;;;;6092445;23;20034;-71
2024/01/08 06:36:43;;;;;;;8.65;3.85;;;-1.30;99.90;;;;;;6066052;23;20026;-71
2024/01/08 06:39:12;;;;;;;7.20;3.78;;;-1.30;99.90;;;;;;6062460;23;20098;-71
2024/01/08 06:41:38;;;;;;;7.63;3.72;;;-1.30;99.90;;;;;;6092081;23;20029;-71
2024/01/08 06:44:04;;;;;;;10.20;3.75;;;-1.30;99.90;;;;;;6090346;23;20166;-72
2024/01/08 06:46:30;;;;;;;9.02;4.78;;;-1.40;99.90;;;;;;6067364;23;20029;-72
2024/01/08 06:48:56;;;;;;;9.13;3.63;;;-1.40;99.90;;;;;;6067797;23;20447;-72
2024/01/08 06:51:22;;;;;;;7.90;3.45;;;-1.40;99.90;;;;;;6067202;23;20058;-70
2024/01/08 06:53:47;;;;;;;9.43;4.20;;;-1.50;99.90;;;;;;6067652;23;20033;-70
2024/01/08 06:56:13;;;;;;;9.15;3.95;;;-1.50;99.90;;;;;;6042606;23;20069;-70
2024/01/08 06:58:39;;;;;;;7.60;3.70;;;-1.50;99.90;;;;;;6067260;23;20026;-70
2024/01/08 07:01:05;;;;;;;9.52;3.88;;;-1.50;99.90;;;;;;6092190;23;20339;-70
2024/01/08 07:03:31;;;;;;;8.63;4.53;;;-1.50;99.90;;;;;;6065474;23;20030;-70
2024/01/08 07:05:57;;;;;;;11.85;5.22;;;-1.60;99.90;;;;;;6092535;23;20030;-70
2024/01/08 07:08:22;;;;;;;10.70;4.93;;;-1.50;99.90;;;;;;6066447;23;20022;-70
2024/01/08 07:10:49;;;;;;;10.93;4.78;;;-1.60;99.90;;;;;;6091321;23;20078;-69
2024/01/08 07:13:18;;;;;;;8.55;4.13;;;-1.60;99.90;;;;;;6092583;23;20010;-71
2024/01/08 07:15:48;;;;;;;10.05;4.00;;;-1.60;99.90;;;;;;6092353;23;20086;-70
2024/01/08 07:18:15;;;;;;;10.90;4.00;;;-1.60;99.90;;;;;;6066349;23;20483;-71
2024/01/08 07:20:41;;;;;;;7.85;4.40;;;-1.60;99.90;;;;;;6043094;23;20023;-70
2024/01/08 07:23:09;;;;;;;9.77;4.32;;;-1.60;99.90;;;;;;6092439;23;20018;-71
2024/01/08 07:25:37;;;;;;;8.57;4.03;;;-1.60;99.90;;;;;;6093616;23;20018;-71
2024/01/08 07:28:07;;;;;;;6.57;3.90;;;-1.60;99.90;;;;;;6093411;23;20505;-70
2024/01/08 07:30:33;;;;;;;10.77;4.20;;;-1.60;99.90;;;;;;6068496;23;20022;-70
2024/01/08 07:32:59;;;;;;;11.57;5.05;;;-1.60;99.90;;;;;;6067861;23;20122;-71
2024/01/08 07:35:25;;;;;;;8.40;4.03;;;-1.60;99.90;;;;;;6068159;23;20350;-71
2024/01/08 07:37:55;;;;;;;9.18;4.25;;;-1.60;99.90;;;;;;6091249;23;20018;-70
2024/01/08 07:40:27;;;;;;;8.18;3.53;;;-1.60;99.90;;;;;;6067435;23;20029;-70
2024/01/08 07:42:57;;;;;;;8.73;3.75;;;-1.60;99.90;;;;;;6043913;23;20022;-70
2024/01/08 07:45:24;;;;;;;9.38;5.40;;;-1.60;99.90;;;;;;6067663;23;20038;-71
2024/01/08 07:47:50;;;;;;;7.40;3.33;;;-1.60;99.90;;;;;;6068350;23;20018;-70
2024/01/08 07:50:16;;;;;;;8.70;3.63;;;-1.60;99.90;;;;;;6066944;23;20026;-71
2024/01/08 07:52:42;;;;;;;9.88;3.63;;;-1.60;99.90;;;;;;6043117;23;20021;-69
2024/01/08 07:55:08;;;;;;;11.30;3.03;;;-1.60;99.90;;;;;;6067976;23;20022;-68
2024/01/08 07:57:34;;;;;;;9.02;3.50;;;-1.60;99.90;;;;;;6092029;23;20022;-68
2024/01/08 08:00:01;;;;;;;8.25;3.17;;;-1.60;99.90;;;;;;6093602;23;20014;-69
2024/01/08 08:02:26;;;;;;;8.55;3.50;;;-1.60;99.90;;;;;;6093352;23;20557;-69
2024/01/08 08:04:55;;;;;;;8.32;3.60;;;-1.50;99.90;;;;;;6093863;23;20050;-69
2024/01/08 08:07:21;;;;;;;8.13;3.75;;;-1.50;99.90;;;;;;6067354;23;20024;-69
2024/01/08 08:09:47;;;;;;;13.73;4.00;;;-1.50;99.90;;;;;;6067539;23;20065;-69
2024/01/08 08:12:13;;;;;;;6.35;3.65;;;-1.50;99.90;;;;;;6065056;23;20025;-69
2024/01/08 08:14:38;;;;;;;7.03;3.30;;;-1.50;99.90;;;;;;6066296;23;20053;-70
2024/01/08 08:17:04;;;;;;;7.80;3.17;;;-1.40;99.90;;;;;;6068607;23;20014;-69
2024/01/08 08:19:30;;;;;;;7.32;3.58;;;-1.40;99.90;;;;;;6068588;23;20026;-69
2024/01/08 08:21:56;;;;;;;12.25;4.13;;;-1.40;99.90;;;;;;6093963;23;20086;-68
2024/01/08 08:24:22;;;;;;;8.30;3.67;;;-1.40;99.90;;;;;;6092787;23;20023;-69
2024/01/08 08:26:47;;;;;;;6.30;3.00;;;-1.30;99.90;;;;;;6067533;23;20129;-68
2024/01/08 08:29:13;;;;;;;5.50;3.15;;;-1.20;99.90;;;;;;6092971;23;20018;-69
2024/01/08 08:31:39;;;;;;;7.60;3.95;;;-1.20;99.90;;;;;;6094337;23;20025;-69
2024/01/08 08:34:05;;;;;;;7.05;3.13;;;-1.20;99.90;;;;;;6067546;23;20054;-69
2024/01/08 08:36:31;;;;;;;9.45;3.60;;;-1.10;99.90;;;;;;6068114;23;20050;-69
2024/01/08 08:38:57;;;;;;;9.38;3.70;;;-1.10;99.90;;;;;;6063947;23;20058;-69
2024/01/08 08:41:22;;;;;;;13.93;3.90;;;-1.00;99.90;;;;;;6067109;23;20038;-69
2024/01/08 08:43:48;;;;;;;8.75;4.00;;;-1.00;99.90;;;;;;6092809;23;20059;-69
2024/01/08 08:46:17;;;;;;;7.10;3.15;;;-0.90;99.90;;;;;;6091524;23;20018;-68
2024/01/08 08:48:43;;;;;;;7.65;3.80;;;-0.90;99.90;;;;;;6092269;23;20098;-69
2024/01/08 08:51:10;;;;;;;6.20;3.30;;;-0.80;99.90;;;;;;6066217;23;20018;-70
2024/01/08 08:53:37;;;;;;;8.60;3.25;;;-0.80;99.90;;;;;;6091636;23;20019;-69
2024/01/08 08:56:04;;;;;;;9.70;3.63;;;-0.80;99.90;;;;;;6091225;23;20018;-69
2024/01/08 08:58:30;;;;;;;7.43;3.05;;;-0.80;99.90;;;;;;6093052;23;20015;-69
2024/01/08 09:00:56;;;;;;;7.55;3.35;;;-0.70;99.90;;;;;;6092713;23;20018;-70
2024/01/08 09:03:22;;;;;;;8.25;3.10;;;-0.70;99.90;;;;;;6092550;23;20098;-69
2024/01/08 09:05:48;;;;;;;9.40;3.20;;;-0.70;99.90;;;;;;6091595;23;20363;-69
2024/01/08 09:08:14;;;;;;;10.30;3.17;;;-0.60;99.90;;;;;;6092321;23;20018;-70
2024/01/08 09:10:40;;;;;;;8.68;3.75;;;-0.60;99.90;;;;;;6091896;23;20080;-69
2024/01/08 09:13:05;;;;;;;8.85;3.50;;;-0.50;99.90;;;;;;6093032;23;20101;-69
2024/01/08 09:15:31;;;;;;;8.05;3.25;;;-0.50;99.90;;;;;;6093978;23;20438;-66
2024/01/08 09:17:56;;;;;;;12.65;3.60;;;-0.40;99.90;;;;;;6092029;23;20018;-71
2024/01/08 09:20:23;;;;;;;6.20;2.72;;;-0.40;99.90;;;;;;6093860;23;20053;-70
2024/01/08 09:22:48;;;;;;;8.15;2.72;;;-0.40;99.90;;;;;;6067477;23;20026;-70
2024/01/08 09:25:14;;;;;;;9.38;2.72;;;-0.40;99.90;;;;;;6091668;23;20077;-71
2024/01/08 09:27:42;;;;;;;8.77;3.42;;;-0.40;99.90;;;;;;6091637;23;20022;-70
2024/01/08 09:30:08;;;;;;;5.30;2.42;;;-0.30;99.90;;;;;;6090246;23;20022;-70
2024/01/08 09:32:35;;;;;;;5.70;2.28;;;-0.20;99.90;;;;;;6064217;23;20029;-71
2024/01/08 09:35:01;;;;;;;7.07;2.58;;;-0.20;99.90;;;;;;6091265;23;20030;-70
2024/01/08 09:37:26;;;;;;;5.32;2.30;;;-0.20;99.90;;;;;;6087427;23;20091;-70
2024/01/08 09:39:53;;;;;;;5.95;2.33;;;-0.10;99.90;;;;;;6064057;23;20026;-71
2024/01/08 09:42:21;;;;;;;4.75;2.35;;;-0.10;99.90;;;;;;6040912;23;20681;-71
2024/01/08 09:44:51;;;;;;;9.63;3.22;;;0.00;99.90;;;;;;6064789;23;20037;-72
2024/01/08 09:47:17;;;;;;;6.93;3.13;;;0.00;99.90;;;;;;6064806;23;20065;-71
2024/01/08 09:49:45;;;;;;;6.43;2.97;;;0.00;99.90;;;;;;6089409;23;20023;-71
2024/01/08 09:52:13;;;;;;;9.63;3.47;;;0.00;99.90;;;;;;6064740;23;20521;-72
2024/01/08 09:54:40;;;;;;;5.75;2.63;;;0.10;99.90;;;;;;6066057;23;20029;-71
2024/01/08 09:57:08;;;;;;;9.27;2.45;;;0.10;99.90;;;;;;6064299;23;20023;-71
2024/01/08 09:59:34;;;;;;;8.15;2.22;;;0.10;99.90;;;;;;6090124;23;20022;-71
2024/01/08 10:02:00;;;;;;;5.03;2.88;;;0.10;99.90;;;;;;6091583;23;20033;-70
2024/01/08 10:04:26;;;;;;;7.00;2.65;;;0.20;99.90;;;;;;6093217;23;20122;-71
2024/01/08 10:07:06;;;;;;;8.77;2.78;;;0.20;99.90;;;;;;6066922;23;20022;-69
2024/01/08 10:09:32;;;;;;;6.22;2.25;;;0.20;99.90;;;;;;6065891;23;20026;-69
2024/01/08 10:11:58;;;;;;;6.50;2.15;;;0.20;99.90;;;;;;6064314;23;20018;-70
2024/01/08 10:14:25;;;;;;;6.85;2.25;;;0.30;99.90;;;;;;6065045;23;20026;-70
2024/01/08 10:16:51;;;;;;;5.43;2.53;;;0.30;99.90;;;;;;6065608;23;20038;-70
2024/01/08 10:19:18;;;;;;;5.43;2.42;;;0.30;99.90;;;;;;6066076;23;20471;-70
2024/01/08 10:21:46;;;;;;;5.15;2.25;;;0.30;99.90;;;;;;6064397;23;20050;-71
2024/01/08 10:24:12;;;;;;;12.52;2.15;;;0.30;99.90;;;;;;6065956;23;20018;-71
2024/01/08 10:26:39;;;;;;;6.53;2.50;;;0.30;99.90;;;;;;6064531;23;20101;-71
2024/01/08 10:29:09;;;;;;;8.10;2.33;;;0.30;99.90;;;;;;6066389;23;20034;-70
2024/01/08 10:31:35;;;;;;;6.35;2.53;;;0.30;99.90;;;;;;6092135;23;20029;-71
2024/01/08 10:34:04;;;;;;;5.13;2.90;;;0.30;99.90;;;;;;6092246;23;20030;-70
2024/01/08 10:36:36;;;;;;;5.05;2.35;;;0.30;99.90;;;;;;6064141;23;20025;-70
2024/01/08 10:39:02;;;;;;;3.85;2.10;;;0.30;99.90;;;;;;6088273;23;20656;-70
2024/01/08 10:41:28;;;;;;;6.40;2.40;;;0.30;99.90;;;;;;6062789;23;20023;-71
2024/01/08 10:43:54;;;;;;;5.57;2.53;;;0.30;99.90;;;;;;6064187;23;20078;-69
2024/01/08 10:46:23;;;;;;;4.40;2.40;;;0.30;99.90;;;;;;6063647;23;20018;-69
2024/01/08 10:48:50;;;;;;;7.00;2.83;;;0.30;99.90;;;;;;6063698;23;20140;-69
2024/01/08 10:51:18;;;;;;;6.68;2.60;;;0.30;99.90;;;;;;6064018;23;20026;-70
2024/01/08 10:53:44;;;;;;;5.78;2.03;;;0.30;99.90;;;;;;6041299;23;20030;-70
2024/01/08 10:56:16;;;;;;;7.13;2.75;;;0.40;99.90;;;;;;6062654;23;20026;-69
2024/01/08 10:58:55;;;;;;;6.60;3.17;;;0.40;99.90;;;;;;6061659;23;20538;-69
2024/01/08 11:01:21;;;;;;;8.85;2.60;;;0.40;99.90;;;;;;6064779;23;20384;-70
2024/01/08 11:03:47;;;;;;;7.20;3.05;;;0.40;99.90;;;;;;6063372;23;20063;-69
2024/01/08 11:06:13;;;;;;;6.78;2.90;;;0.40;99.90;;;;;;6066897;23;20539;-70
2024/01/08 11:08:42;;;;;;;4.57;2.10;;;0.40;99.90;;;;;;6043689;23;20046;-70
2024/01/08 11:11:09;;;;;;;5.78;2.67;;;0.40;99.90;;;;;;6042082;23;20050;-70
2024/01/08 11:13:36;;;;;;;6.82;3.08;;;0.50;99.90;;;;;;6067895;23;20026;-70
2024/01/08 11:16:09;;;;;;;4.47;2.67;;;0.50;99.90;;;;;;6043283;23;20014;-70
2024/01/08 11:18:34;;;;;;;5.82;2.53;;;0.50;99.90;;;;;;6067229;23;20054;-71
2024/01/08 11:21:01;;;;;;;7.10;3.38;;;0.50;99.90;;;;;;6098058;23;20030;-69
2024/01/08 11:23:37;;;;;;;6.75;2.88;;;0.50;99.90;;;;;;6096851;23;20049;-73
2024/01/08 11:26:18;;;;;;;7.05;2.75;;;0.50;99.90;;;;;;6092409;23;20023;-73
2024/01/08 11:29:03;;;;;;;5.68;2.60;;;0.50;99.90;;;;;;6093887;23;20426;-73
2024/01/08 11:31:29;;;;;;;5.30;2.72;;;0.40;99.90;;;;;;6066574;23;20081;-73
2024/01/08 11:34:16;;;;;;;6.93;2.50;;;0.40;99.90;;;;;;6093790;23;20042;-73
2024/01/08 11:36:48;;;;;;;7.45;3.45;;;0.40;99.90;;;;;;6092569;23;20130;-73
2024/01/08 11:39:19;;;;;;;4.90;2.85;;;0.30;99.90;;;;;;6064326;23;20050;-72
2024/01/08 11:41:46;;;;;;;6.65;2.72;;;0.30;99.90;;;;;;6092032;23;20024;-73
2024/01/08 11:44:14;;;;;;;5.75;2.80;;;0.30;99.90;;;;;;6092668;23;20022;-73
2024/01/08 11:46:44;;;;;;;5.07;2.85;;;0.20;99.90;;;;;;6067876;23;20362;-73
2024/01/08 11:49:10;;;;;;;5.57;3.10;;;0.10;99.90;;;;;;6093548;23;20022;-72
2024/01/08 11:51:41;;;;;;;9.38;3.00;;;0.10;99.90;;;;;;6091807;23;20030;-73
2024/01/08 11:54:10;;;;;;;5.63;2.92;;;0.10;99.90;;;;;;6095828;23;20105;-73
2024/01/08 11:56:37;;;;;;;6.47;2.50;;;0.10;99.90;;;;;;6093272;23;20127;-73
2024/01/08 11:59:02;;;;;;;7.07;3.17;;;0.20;99.90;;;;;;6042707;23;20025;-73
2024/01/08 12:01:28;;;;;;;5.68;2.70;;;0.20;99.90;;;;;;6094239;23;20026;-73
2024/01/08 12:04:00;;;;;;;7.43;2.75;;;0.20;99.90;;;;;;6069058;23;20469;-72
2024/01/08 12:06:27;;;;;;;3.97;2.65;;;0.20;99.90;;;;;;6093967;23;20027;-72
2024/01/08 12:08:56;;;;;;;5.60;2.47;;;0.20;99.90;;;;;;6094191;23;20081;-72
2024/01/08 12:11:25;;;;;;;5.35;2.22;;;0.20;99.90;;;;;;6092767;23;20025;-73
2024/01/08 12:13:53;;;;;;;7.20;2.60;;;0.20;99.90;;;;;;6095435;23;20025;-73
2024/01/08 12:16:20;;;;;;;6.10;3.35;;;0.30;99.90;;;;;;6093616;23;20569;-74
2024/01/08 12:18:46;;;;;;;8.05;3.72;;;0.30;99.90;;;;;;6092520;23;20450;-72
2024/01/08 12:21:12;;;;;;;6.53;2.50;;;0.40;99.90;;;;;;6093615;23;20048;-73
2024/01/08 12:23:38;;;;;;;5.60;2.70;;;0.40;99.90;;;;;;6093751;23;20109;-72
2024/01/08 12:26:06;;;;;;;7.05;2.80;;;0.40;99.90;;;;;;6093100;23;20034;-72
2024/01/08 12:28:33;;;;;;;5.43;2.53;;;0.40;99.90;;;;;;6093766;23;20073;-73
2024/01/08 12:30:59;;;;;;;3.65;2.10;;;0.40;99.90;;;;;;6068036;23;20042;-74
2024/01/08 12:33:25;;;;;;;6.82;2.50;;;0.40;99.90;;;;;;6093832;23;20014;-72
2024/01/08 12:35:57;;;;;;;4.63;2.05;;;0.40;99.90;;;;;;6092895;23;20405;-72
2024/01/08 12:38:23;;;;;;;7.10;2.70;;;0.40;99.90;;;;;;6088117;23;20062;-72
2024/01/08 12:40:53;;;;;;;6.80;2.85;;;0.50;99.90;;;;;;6091604;23;20081;-73
2024/01/08 12:43:19;;;;;;;4.93;2.05;;;0.40;99.90;;;;;;6092616;23;20018;-74
2024/01/08 12:45:50;;;;;;;6.43;2.35;;;0.40;99.90;;;;;;6092656;23;20034;-74